createdAt,value
2023-04-25T00:00:01.293Z,101111.56
2023-04-25T00:02:29.181Z,101121.44
2023-04-25T00:04:59.396Z,101113.47
2023-04-25T00:07:27.816Z,101115.31
2023-04-25T00:09:55.680Z,101116.31
2023-04-25T00:12:23.853Z,101107.44
2023-04-25T00:14:53.822Z,101118.22
2023-04-25T00:17:21.419Z,101117.38
2023-04-25T00:19:49.263Z,101128.16
2023-04-25T00:22:16.892Z,101127.25
2023-04-25T00:24:44.525Z,101122.81
2023-04-25T00:27:12.188Z,101130.91
2023-04-25T00:29:40.014Z,101126.53
2023-04-25T00:32:09.072Z,101123.00
2023-04-25T00:34:36.994Z,101121.28
2023-04-25T00:37:04.679Z,101123.09
2023-04-25T00:39:32.357Z,101119.53
2023-04-25T00:42:00.317Z,101123.19
2023-04-25T00:44:30.449Z,101119.72
2023-04-25T00:46:58.563Z,101125.06
2023-04-25T00:49:27.619Z,101122.41
2023-04-25T00:51:55.423Z,101126.97
2023-04-25T00:54:23.177Z,101114.53
2023-04-25T00:56:50.962Z,101122.56
2023-04-25T00:59:20.261Z,101119.94
2023-04-25T01:01:48.027Z,101127.13
2023-04-25T01:04:16.158Z,101120.91
2023-04-25T01:06:45.962Z,101134.34
2023-04-25T01:09:14.634Z,101126.41
2023-04-25T01:11:42.344Z,101134.44
2023-04-25T01:14:09.962Z,101130.94
2023-04-25T01:16:37.839Z,101134.53
2023-04-25T01:19:10.740Z,101130.13
2023-04-25T01:21:39.931Z,101132.03
2023-04-25T01:24:08.307Z,101139.16
2023-04-25T01:26:36.907Z,101143.66
2023-04-25T01:29:06.018Z,101144.50
2023-04-25T01:31:35.182Z,101149.91
2023-04-25T01:34:02.947Z,101151.75
2023-04-25T01:36:31.419Z,101163.34
2023-04-25T01:39:00.620Z,101161.63
2023-04-25T01:41:28.864Z,101164.28
2023-04-25T01:43:56.843Z,101160.75
2023-04-25T01:46:24.597Z,101165.28
2023-04-25T01:48:52.336Z,101164.44
2023-04-25T01:51:20.341Z,101163.56
2023-04-25T01:53:48.625Z,101167.13
2023-04-25T01:56:17.766Z,101167.19
2023-04-25T01:58:45.573Z,101165.44
2023-04-25T02:01:13.606Z,101162.81
2023-04-25T02:03:41.714Z,101177.06
2023-04-25T02:06:09.672Z,101184.22
2023-04-25T02:08:38.424Z,101176.22
2023-04-25T02:11:06.441Z,101174.50
2023-04-25T02:13:35.598Z,101174.50
2023-04-25T02:16:03.497Z,101187.03
2023-04-25T02:18:32.197Z,101199.50
2023-04-25T02:21:00.670Z,101201.31
2023-04-25T02:23:29.120Z,101207.56
2023-04-25T02:25:58.934Z,101221.00
2023-04-25T02:28:27.313Z,101228.13
2023-04-25T02:30:56.549Z,101230.84
2023-04-25T02:33:24.348Z,101218.41
2023-04-25T02:35:52.050Z,101221.13
2023-04-25T02:38:19.794Z,101203.34
2023-04-25T02:40:47.549Z,101203.34
2023-04-25T02:43:17.004Z,101206.06
2023-04-25T02:45:44.741Z,101198.06
2023-04-25T02:48:14.023Z,101199.00
2023-04-25T02:50:42.114Z,101199.94
2023-04-25T02:53:09.781Z,101195.56
2023-04-25T02:55:37.699Z,101196.41
2023-04-25T02:58:05.608Z,101194.66
2023-04-25T03:00:33.550Z,101192.91
2023-04-25T03:03:01.618Z,101184.06
2023-04-25T03:05:31.130Z,101187.59
2023-04-25T03:07:58.913Z,101196.53
2023-04-25T03:10:26.992Z,101192.13
2023-04-25T03:12:54.898Z,101195.69
2023-04-25T03:15:23.245Z,101197.50
2023-04-25T03:17:50.925Z,101202.00
2023-04-25T03:20:18.577Z,101200.25
2023-04-25T03:22:48.138Z,101207.38
2023-04-25T03:25:16.019Z,101203.81
2023-04-25T03:27:43.653Z,101203.84
2023-04-25T03:30:12.195Z,101201.19
2023-04-25T03:32:39.994Z,101202.13
2023-04-25T03:35:08.519Z,101206.56
2023-04-25T03:37:36.372Z,101209.31
2023-04-25T03:40:07.244Z,101203.13
2023-04-25T03:42:35.087Z,101208.47
2023-04-25T03:45:03.267Z,101212.97
2023-04-25T03:47:31.219Z,101218.31
2023-04-25T03:49:59.367Z,101212.09
2023-04-25T03:52:27.295Z,101216.59
2023-04-25T03:54:55.149Z,101222.00
2023-04-25T03:57:24.968Z,101222.00
2023-04-25T03:59:52.921Z,101222.88
2023-04-25T04:02:20.944Z,101222.00
2023-04-25T04:04:48.808Z,101223.81
2023-04-25T04:07:17.111Z,101225.53
2023-04-25T04:09:45.110Z,101224.69
2023-04-25T04:12:13.114Z,101225.59
2023-04-25T04:14:42.195Z,101230.94
2023-04-25T04:17:10.061Z,101237.19
2023-04-25T04:19:38.120Z,101238.09
2023-04-25T04:22:06.081Z,101234.63
2023-04-25T04:24:34.262Z,101243.56
2023-04-25T04:27:02.026Z,101245.31
2023-04-25T04:29:30.115Z,101256.00
2023-04-25T04:31:59.545Z,101250.66
2023-04-25T04:34:28.179Z,101254.25
2023-04-25T04:36:56.016Z,101256.94
2023-04-25T04:39:23.639Z,101258.75
2023-04-25T04:41:51.991Z,101265.91
2023-04-25T04:44:19.604Z,101251.63
2023-04-25T04:46:47.962Z,101263.25
2023-04-25T04:49:17.124Z,101257.94
2023-04-25T04:51:46.068Z,101265.97
2023-04-25T04:54:14.090Z,101266.03
2023-04-25T04:56:42.880Z,101265.13
2023-04-25T04:59:10.944Z,101273.13
2023-04-25T05:01:39.335Z,101280.28
2023-04-25T05:04:08.355Z,101284.78
2023-04-25T05:06:37.936Z,101286.59
2023-04-25T05:09:05.775Z,101295.47
2023-04-25T05:11:33.620Z,101295.47
2023-04-25T05:14:01.398Z,101291.03
2023-04-25T05:16:29.379Z,101297.28
2023-04-25T05:18:57.287Z,101303.53
2023-04-25T05:21:25.131Z,101298.25
2023-04-25T05:23:54.497Z,101306.25
2023-04-25T05:26:22.386Z,101311.59
2023-04-25T05:28:51.851Z,101311.59
2023-04-25T05:31:19.468Z,101316.06
2023-04-25T05:33:47.126Z,101316.06
2023-04-25T05:36:15.195Z,101304.50
2023-04-25T05:38:44.043Z,101314.28
2023-04-25T05:41:13.486Z,101319.47
2023-04-25T05:43:46.241Z,101313.19
2023-04-25T05:46:14.235Z,101318.44
2023-04-25T05:48:41.963Z,101329.06
2023-04-25T05:51:09.574Z,101324.53
2023-04-25T05:53:38.371Z,101322.66
2023-04-25T05:56:07.248Z,101334.19
2023-04-25T05:58:36.240Z,101340.38
2023-04-25T06:01:04.671Z,101342.16
2023-04-25T06:03:33.360Z,101342.09
2023-04-25T06:06:02.245Z,101356.34
2023-04-25T06:08:30.352Z,101360.81
2023-04-25T06:10:58.867Z,101357.28
2023-04-25T06:13:26.940Z,101360.91
2023-04-25T06:15:55.907Z,101370.75
2023-04-25T06:18:23.685Z,101374.34
2023-04-25T06:20:51.876Z,101377.88
2023-04-25T06:23:19.464Z,101382.28
2023-04-25T06:25:47.337Z,101378.66
2023-04-25T06:28:15.030Z,101380.31
2023-04-25T06:30:43.141Z,101382.91
2023-04-25T06:33:12.213Z,101382.81
2023-04-25T06:35:39.949Z,101385.47
2023-04-25T06:38:07.536Z,101388.97
2023-04-25T06:40:35.214Z,101401.41
2023-04-25T06:43:03.518Z,101402.31
2023-04-25T06:45:31.725Z,101402.31
2023-04-25T06:48:00.006Z,101405.91
2023-04-25T06:50:29.503Z,101402.34
2023-04-25T06:52:57.295Z,101404.16
2023-04-25T06:55:25.206Z,101399.72
2023-04-25T06:57:53.658Z,101398.84
2023-04-25T07:00:22.585Z,101401.53
2023-04-25T07:02:51.497Z,101404.19
2023-04-25T07:05:19.583Z,101406.88
2023-04-25T07:07:48.933Z,101400.63
2023-04-25T07:10:16.611Z,101405.09
2023-04-25T07:12:44.644Z,101407.78
2023-04-25T07:15:12.700Z,101410.44
2023-04-25T07:17:40.742Z,101407.72
2023-04-25T07:20:10.339Z,101401.53
2023-04-25T07:22:38.255Z,101413.03
2023-04-25T07:25:09.855Z,101413.88
2023-04-25T07:27:37.811Z,101416.50
2023-04-25T07:30:07.532Z,101430.72
2023-04-25T07:32:35.844Z,101436.06
2023-04-25T07:35:04.837Z,101444.97
2023-04-25T07:37:32.896Z,101451.25
2023-04-25T07:40:00.936Z,101461.94
2023-04-25T07:42:30.498Z,101462.84
2023-04-25T07:44:58.391Z,101450.41
2023-04-25T07:47:26.495Z,101444.19
2023-04-25T07:49:54.305Z,101442.41
2023-04-25T07:52:22.418Z,101444.19
2023-04-25T07:54:50.414Z,101444.19
2023-04-25T07:57:19.384Z,101454.03
2023-04-25T07:59:48.376Z,101460.25
2023-04-25T08:02:16.161Z,101470.22
2023-04-25T08:04:43.891Z,101469.31
2023-04-25T08:07:11.917Z,101474.63
2023-04-25T08:09:40.007Z,101476.38
2023-04-25T08:12:08.420Z,101477.19
2023-04-25T08:14:38.350Z,101481.63
2023-04-25T08:17:09.033Z,101484.28
2023-04-25T08:19:37.160Z,101493.13
2023-04-25T08:22:05.032Z,101493.72
2023-04-25T08:24:32.654Z,101497.63
2023-04-25T08:27:02.194Z,101504.00
2023-04-25T08:29:30.445Z,101504.16
2023-04-25T08:31:58.423Z,101516.22
2023-04-25T08:34:27.823Z,101510.56
2023-04-25T08:36:55.788Z,101521.00
2023-04-25T08:39:23.895Z,101511.94
2023-04-25T08:41:53.715Z,101516.38
2023-04-25T08:44:23.238Z,101520.78
2023-04-25T08:46:52.705Z,101515.66
2023-04-25T08:49:21.554Z,101532.63
2023-04-25T08:51:52.721Z,101524.78
2023-04-25T08:54:35.411Z,101527.22
2023-04-25T08:57:05.652Z,101534.03
2023-04-25T08:59:36.559Z,101541.72
2023-04-25T09:02:05.469Z,101541.34
2023-04-25T09:04:33.677Z,101551.09
2023-04-25T09:07:03.684Z,101560.81
2023-04-25T09:09:31.656Z,101564.72
2023-04-25T09:12:00.797Z,101570.19
2023-04-25T09:14:29.114Z,101577.44
2023-04-25T09:17:08.822Z,101578.50
2023-04-25T09:19:42.222Z,101572.50
2023-04-25T09:22:12.064Z,101574.13
2023-04-25T09:24:42.660Z,101574.63
2023-04-25T09:27:12.219Z,101584.88
2023-04-25T09:29:42.103Z,101584.50
2023-04-25T09:32:28.136Z,101582.44
2023-04-25T09:34:58.659Z,101573.50
2023-04-25T09:37:30.849Z,101579.94
2023-04-25T09:40:03.732Z,101591.88
2023-04-25T09:42:33.033Z,101594.69
2023-04-25T09:45:02.975Z,101594.13
2023-04-25T09:47:31.224Z,101595.31
2023-04-25T09:49:59.446Z,101605.28
2023-04-25T09:52:29.100Z,101604.63
2023-04-25T09:54:57.379Z,101599.38
2023-04-25T09:57:27.206Z,101612.78
2023-04-25T09:59:56.671Z,101607.44
2023-04-25T10:02:27.152Z,101612.53
2023-04-25T10:04:56.981Z,101615.88
2023-04-25T10:07:27.263Z,101617.88
2023-04-25T10:10:01.717Z,101626.94
2023-04-25T10:12:29.482Z,101634.22
2023-04-25T10:14:57.310Z,101628.03
2023-04-25T10:17:25.653Z,101628.81
2023-04-25T10:19:53.871Z,101631.63
2023-04-25T10:22:31.399Z,101637.53
2023-04-25T10:25:00.998Z,101637.13
2023-04-25T10:27:29.682Z,101641.28
2023-04-25T10:30:05.577Z,101637.50
2023-04-25T10:32:34.545Z,101648.78
2023-04-25T10:35:13.404Z,101644.94
2023-04-25T10:37:58.325Z,101656.25
2023-04-25T10:40:28.378Z,101647.97
2023-04-25T10:42:57.292Z,101647.78
2023-04-25T10:45:25.071Z,101648.44
2023-04-25T10:47:52.783Z,101651.06
2023-04-25T10:50:20.445Z,101655.44
2023-04-25T10:52:48.724Z,101652.63
2023-04-25T10:55:16.547Z,101648.06
2023-04-25T10:57:49.454Z,101656.03
2023-04-25T11:00:20.587Z,101649.63
2023-04-25T11:02:50.359Z,101659.38
2023-04-25T11:05:25.092Z,101655.72
2023-04-25T11:08:06.429Z,101645.84
2023-04-25T11:10:37.569Z,101651.97
2023-04-25T11:13:07.444Z,101647.53
2023-04-25T11:15:35.569Z,101655.69
2023-04-25T11:18:04.512Z,101659.03
2023-04-25T11:20:32.895Z,101666.78
2023-04-25T11:25:31.103Z,101660.06
2023-04-25T11:28:02.442Z,101656.06
2023-04-25T11:30:32.696Z,101659.31
2023-04-25T11:33:00.949Z,101665.72
2023-04-25T11:35:28.897Z,101664.53
2023-04-25T11:37:57.720Z,101665.38
2023-04-25T11:40:26.263Z,101655.56
2023-04-25T11:42:54.958Z,101658.44
2023-04-25T11:45:25.278Z,101672.13
2023-04-25T11:47:54.752Z,101670.53
2023-04-25T11:50:22.642Z,101669.78
2023-04-25T11:52:51.417Z,101678.03
2023-04-25T11:55:21.149Z,101677.38
2023-04-25T11:57:51.065Z,101679.38
2023-04-25T12:00:21.490Z,101676.72
2023-04-25T12:02:53.642Z,101690.22
2023-04-25T12:05:32.741Z,101685.88
2023-04-25T12:08:13.472Z,101695.75
2023-04-25T12:10:42.191Z,101694.03
2023-04-25T12:13:23.941Z,101695.84
2023-04-25T12:15:52.025Z,101699.53
2023-04-25T12:18:22.928Z,101699.56
2023-04-25T12:20:54.289Z,101690.75
2023-04-25T12:23:28.406Z,101704.19
2023-04-25T12:25:56.830Z,101712.38
2023-04-25T12:28:27.866Z,101715.97
2023-04-25T12:30:58.939Z,101715.97
2023-04-25T12:33:27.922Z,101724.91
2023-04-25T12:35:58.451Z,101730.31
2023-04-25T12:38:27.703Z,101729.44
2023-04-25T12:40:56.273Z,101730.31
2023-04-25T12:43:24.052Z,101727.66
2023-04-25T12:45:52.347Z,101743.78
2023-04-25T12:48:20.421Z,101741.13
2023-04-25T12:50:50.123Z,101737.63
2023-04-25T12:53:19.847Z,101736.72
2023-04-25T12:55:48.478Z,101750.13
2023-04-25T12:58:17.035Z,101742.19
2023-04-25T13:00:45.497Z,101738.56
2023-04-25T13:03:14.221Z,101746.56
2023-04-25T13:05:42.667Z,101742.09
2023-04-25T13:08:10.665Z,101738.47
2023-04-25T13:10:40.499Z,101745.78
2023-04-25T13:13:08.479Z,101738.28
2023-04-25T13:15:36.591Z,101737.72
2023-04-25T13:18:06.535Z,101741.56
2023-04-25T13:20:34.961Z,101732.88
2023-04-25T13:23:03.182Z,101733.75
2023-04-25T13:25:31.276Z,101732.81
2023-04-25T13:28:00.550Z,101737.16
2023-04-25T13:30:28.641Z,101743.19
2023-04-25T13:32:57.952Z,101737.69
2023-04-25T13:35:25.753Z,101741.25
2023-04-25T13:37:53.387Z,101739.31
2023-04-25T13:40:22.815Z,101749.06
2023-04-25T13:42:52.638Z,101747.16
2023-04-25T13:45:22.176Z,101748.38
2023-04-25T13:47:51.049Z,101742.44
2023-04-25T13:50:19.401Z,101746.97
2023-04-25T13:52:47.240Z,101751.53
2023-04-25T13:55:15.157Z,101747.19
2023-04-25T13:57:43.010Z,101764.06
2023-04-25T14:00:12.125Z,101765.59
2023-04-25T14:02:41.630Z,101754.72
2023-04-25T14:05:10.607Z,101762.59
2023-04-25T14:07:39.345Z,101762.50
2023-04-25T14:10:08.253Z,101775.00
2023-04-25T14:12:36.241Z,101769.63
2023-04-25T14:15:04.678Z,101779.50
2023-04-25T14:17:32.559Z,101778.63
2023-04-25T14:20:02.021Z,101776.81
2023-04-25T14:22:29.743Z,101774.06
2023-04-25T14:24:57.444Z,101769.56
2023-04-25T14:27:28.588Z,101772.19
2023-04-25T14:29:57.473Z,101769.41
2023-04-25T14:32:25.706Z,101768.41
2023-04-25T14:34:53.461Z,101769.28
2023-04-25T14:37:22.423Z,101770.13
2023-04-25T14:39:50.459Z,101770.19
2023-04-25T14:42:18.586Z,101778.16
2023-04-25T14:44:47.414Z,101779.03
2023-04-25T14:47:15.394Z,101784.28
2023-04-25T14:49:43.473Z,101778.88
2023-04-25T14:52:11.568Z,101782.44
2023-04-25T14:54:40.976Z,101785.97
2023-04-25T14:57:08.828Z,101780.53
2023-04-25T14:59:36.610Z,101779.56
2023-04-25T15:02:04.465Z,101784.03
2023-04-25T15:04:32.963Z,101787.59
2023-04-25T15:07:00.918Z,101793.00
2023-04-25T15:09:29.735Z,101788.56
2023-04-25T15:11:59.511Z,101784.97
2023-04-25T15:14:27.610Z,101780.56
2023-04-25T15:16:55.615Z,101788.66
2023-04-25T15:19:24.345Z,101786.09
2023-04-25T15:21:52.105Z,101801.28
2023-04-25T15:24:20.379Z,101796.00
2023-04-25T15:26:48.224Z,101792.47
2023-04-25T15:29:17.966Z,101797.84
2023-04-25T15:31:46.501Z,101796.25
2023-04-25T15:34:14.728Z,101794.81
2023-04-25T15:36:42.564Z,101798.66
2023-04-25T15:39:10.972Z,101795.03
2023-04-25T15:41:39.429Z,101794.16
2023-04-25T15:44:08.316Z,101794.31
2023-04-25T15:46:37.770Z,101797.13
2023-04-25T15:49:06.160Z,101798.94
2023-04-25T15:51:34.733Z,101798.06
2023-04-25T15:54:04.483Z,101795.28
2023-04-25T15:56:32.444Z,101796.72
2023-04-25T15:59:00.164Z,101797.13
2023-04-25T16:01:31.121Z,101807.38
2023-04-25T16:04:00.771Z,101795.34
2023-04-25T16:06:28.963Z,101816.38
2023-04-25T16:08:57.500Z,101809.88
2023-04-25T16:11:25.990Z,101805.09
2023-04-25T16:13:54.106Z,101817.25
2023-04-25T16:16:22.228Z,101819.56
2023-04-25T16:18:50.313Z,101815.78
2023-04-25T16:21:19.630Z,101822.63
2023-04-25T16:23:47.604Z,101812.59
2023-04-25T16:26:16.208Z,101816.03
2023-04-25T16:28:44.398Z,101824.72
2023-04-25T16:31:12.406Z,101821.97
2023-04-25T16:33:40.119Z,101822.88
2023-04-25T16:36:09.499Z,101820.13
2023-04-25T16:38:39.730Z,101817.50
2023-04-25T16:41:08.616Z,101839.06
2023-04-25T16:43:36.490Z,101840.97
2023-04-25T16:46:04.574Z,101839.25
2023-04-25T16:48:32.126Z,101834.00
2023-04-25T16:51:00.402Z,101839.44
2023-04-25T16:53:28.633Z,101847.56
2023-04-25T16:55:58.672Z,101842.25
2023-04-25T16:58:27.138Z,101850.38
2023-04-25T17:00:56.075Z,101846.00
2023-04-25T17:03:24.125Z,101845.19
2023-04-25T17:05:52.138Z,101840.75
2023-04-25T17:08:19.702Z,101843.41
2023-04-25T17:10:47.428Z,101841.66
2023-04-25T17:13:17.238Z,101854.16
2023-04-25T17:15:45.322Z,101845.25
2023-04-25T17:18:12.989Z,101855.13
2023-04-25T17:20:40.957Z,101856.84
2023-04-25T17:23:08.642Z,101858.81
2023-04-25T17:25:36.571Z,101862.44
2023-04-25T17:28:04.486Z,101862.44
2023-04-25T17:30:34.491Z,101853.03
2023-04-25T17:33:02.239Z,101854.81
2023-04-25T17:35:30.163Z,101851.88
2023-04-25T17:37:58.100Z,101857.97
2023-04-25T17:40:26.997Z,101857.84
2023-04-25T17:42:54.661Z,101854.16
2023-04-25T17:45:22.612Z,101857.56
2023-04-25T17:47:51.818Z,101860.19
2023-04-25T17:50:20.692Z,101858.38
2023-04-25T17:52:49.490Z,101866.38
2023-04-25T17:55:17.478Z,101860.06
2023-04-25T17:57:45.241Z,101868.13
2023-04-25T18:00:14.350Z,101865.38
2023-04-25T18:02:42.156Z,101866.28
2023-04-25T18:05:11.373Z,101865.38
2023-04-25T18:07:39.745Z,101860.91
2023-04-25T18:10:09.460Z,101860.88
2023-04-25T18:12:38.458Z,101866.22
2023-04-25T18:15:07.739Z,101859.94
2023-04-25T18:17:40.450Z,101863.53
2023-04-25T18:20:14.982Z,101864.44
2023-04-25T18:22:44.559Z,101866.41
2023-04-25T18:25:13.686Z,101866.53
2023-04-25T18:27:42.410Z,101864.88
2023-04-25T18:30:12.779Z,101864.91
2023-04-25T18:32:41.962Z,101867.66
2023-04-25T18:35:12.209Z,101865.88
2023-04-25T18:37:42.058Z,101864.16
2023-04-25T18:40:13.967Z,101868.66
2023-04-25T18:42:42.036Z,101875.84
2023-04-25T18:45:11.419Z,101881.22
2023-04-25T18:47:39.652Z,101878.56
2023-04-25T18:50:09.003Z,101884.88
2023-04-25T18:52:38.166Z,101881.28
2023-04-25T18:55:07.266Z,101880.47
2023-04-25T18:57:35.132Z,101885.84
2023-04-25T19:00:05.668Z,101894.81
2023-04-25T19:02:33.602Z,101897.47
2023-04-25T19:05:01.530Z,101895.72
2023-04-25T19:07:30.818Z,101899.31
2023-04-25T19:10:00.646Z,101894.81
2023-04-25T19:12:28.638Z,101887.72
2023-04-25T19:14:56.887Z,101902.91
2023-04-25T19:17:24.712Z,101896.72
2023-04-25T19:19:52.553Z,101902.06
2023-04-25T19:22:20.673Z,101901.22
2023-04-25T19:24:53.047Z,101907.41
2023-04-25T19:27:41.241Z,101904.44
2023-04-25T19:30:10.781Z,101906.94
2023-04-25T19:32:39.607Z,101910.34
2023-04-25T19:35:11.415Z,101916.56
2023-04-25T19:37:46.295Z,101913.75
2023-04-25T19:40:16.041Z,101914.59
2023-04-25T19:42:45.826Z,101912.75
2023-04-25T19:45:13.833Z,101911.78
2023-04-25T19:47:42.464Z,101912.59
2023-04-25T19:50:11.866Z,101915.22
2023-04-25T19:52:40.261Z,101914.31
2023-04-25T19:55:10.274Z,101918.81
2023-04-25T19:57:38.290Z,101906.28
2023-04-25T20:00:10.890Z,101915.13
2023-04-25T20:02:39.312Z,101917.78
2023-04-25T20:05:09.882Z,101917.72
2023-04-25T20:07:37.866Z,101923.06
2023-04-25T20:10:07.893Z,101925.75
2023-04-25T20:12:37.205Z,101918.50
2023-04-25T20:15:05.602Z,101918.94
2023-04-25T20:17:35.143Z,101919.72
2023-04-25T20:20:05.030Z,101922.34
2023-04-25T20:22:36.083Z,101923.28
2023-04-25T20:25:05.500Z,101920.59
2023-04-25T20:27:33.442Z,101916.13
2023-04-25T20:30:04.772Z,101917.78
2023-04-25T20:32:34.295Z,101921.38
2023-04-25T20:35:03.565Z,101933.88
2023-04-25T20:37:32.620Z,101927.66
2023-04-25T20:40:00.863Z,101924.13
2023-04-25T20:42:28.705Z,101925.88
2023-04-25T20:44:57.108Z,101922.34
2023-04-25T20:47:25.204Z,101924.97
2023-04-25T20:49:54.467Z,101917.78
2023-04-25T20:52:22.771Z,101918.63
2023-04-25T20:54:52.421Z,101926.69
2023-04-25T20:57:20.182Z,101923.19
2023-04-25T20:59:49.567Z,101924.06
2023-04-25T21:02:19.300Z,101923.19
2023-04-25T21:04:47.444Z,101924.06
2023-04-25T21:07:16.720Z,101914.16
2023-04-25T21:09:45.608Z,101928.47
2023-04-25T21:12:13.673Z,101916.81
2023-04-25T21:14:41.311Z,101922.13
2023-04-25T21:17:09.141Z,101924.81
2023-04-25T21:19:36.883Z,101915.03
2023-04-25T21:22:04.648Z,101923.06
2023-04-25T21:24:33.950Z,101919.47
2023-04-25T21:27:02.566Z,101919.44
2023-04-25T21:29:31.040Z,101918.31
2023-04-25T21:31:59.128Z,101928.66
2023-04-25T21:34:27.092Z,101923.09
2023-04-25T21:36:55.050Z,101922.19
2023-04-25T21:39:23.638Z,101917.78
2023-04-25T21:41:52.797Z,101919.75
2023-04-25T21:44:20.780Z,101928.94
2023-04-25T21:46:48.528Z,101929.25
2023-04-25T21:49:16.735Z,101924.16
2023-04-25T21:51:44.544Z,101928.81
2023-04-25T21:54:12.666Z,101924.53
2023-04-25T21:56:40.513Z,101924.66
2023-04-25T21:59:10.229Z,101924.00
2023-04-25T22:01:38.455Z,101923.34
2023-04-25T22:04:06.894Z,101922.72
2023-04-25T22:06:34.974Z,101919.34
2023-04-25T22:09:04.880Z,101918.63
2023-04-25T22:11:33.671Z,101925.94
2023-04-25T22:14:01.433Z,101926.09
2023-04-25T22:16:30.614Z,101928.03
2023-04-25T22:18:59.384Z,101933.53
2023-04-25T22:21:27.860Z,101938.13
2023-04-25T22:23:56.696Z,101936.44
2023-04-25T22:26:25.467Z,101941.97
2023-04-25T22:28:53.562Z,101934.88
2023-04-25T22:31:21.517Z,101946.66
2023-04-25T22:33:51.489Z,101943.19
2023-04-25T22:36:19.700Z,101944.19
2023-04-25T22:38:47.700Z,101949.66
2023-04-25T22:41:15.687Z,101950.59
2023-04-25T22:43:43.407Z,101946.16
2023-04-25T22:46:16.768Z,101946.22
2023-04-25T22:48:44.978Z,101949.88
2023-04-25T22:51:14.491Z,101949.03
2023-04-25T22:53:45.474Z,101956.25
2023-04-25T22:56:13.825Z,101955.44
2023-04-25T22:58:41.478Z,101957.28
2023-04-25T23:01:09.474Z,101955.59
2023-04-25T23:03:38.153Z,101952.97
2023-04-25T23:06:06.713Z,101960.13
2023-04-25T23:08:35.809Z,101950.44
2023-04-25T23:11:07.783Z,101956.69
2023-04-25T23:13:36.636Z,101948.75
2023-04-25T23:16:09.053Z,101948.78
2023-04-25T23:18:36.701Z,101955.09
2023-04-25T23:21:07.378Z,101949.75
2023-04-25T23:23:36.772Z,101961.38
2023-04-25T23:26:08.236Z,101959.59
2023-04-25T23:28:39.908Z,101956.06
2023-04-25T23:31:11.671Z,101951.69
2023-04-25T23:33:40.096Z,101944.56
2023-04-25T23:36:08.639Z,101942.84
2023-04-25T23:38:37.937Z,101946.44
2023-04-25T23:41:05.764Z,101943.81
2023-04-25T23:43:33.569Z,101943.84
2023-04-25T23:46:01.509Z,101950.16
2023-04-25T23:48:29.652Z,101953.69
2023-04-25T23:50:57.710Z,101946.59
2023-04-25T23:53:25.472Z,101943.97
2023-04-25T23:55:54.589Z,101949.34
2023-04-25T23:58:22.545Z,101944.06
